sensor_id;sensor_type;location;lat;lon;timestamp;P1;durP1;ratioP1;P2;durP2;ratioP2
12314;SDS011;23886;46.614;14.276;2023-06-19T00:00:02;9.03;;;8.17;;
12314;SDS011;23886;46.614;14.276;2023-06-19T00:02:37;9.17;;;8.30;;
12314;SDS011;23886;46.614;14.276;2023-06-19T00:05:06;8.70;;;8.00;;
12314;SDS011;23886;46.614;14.276;2023-06-19T00:07:34;7.90;;;7.30;;
12314;SDS011;23886;46.614;14.276;2023-06-19T00:10:02;8.57;;;7.87;;
12314;SDS011;23886;46.614;14.276;2023-06-19T00:12:29;8.70;;;8.00;;
12314;SDS011;23886;46.614;14.276;2023-06-19T00:14:56;9.13;;;8.23;;
12314;SDS011;23886;46.614;14.276;2023-06-19T00:17:23;9.00;;;8.10;;
12314;SDS011;23886;46.614;14.276;2023-06-19T00:19:52;9.43;;;8.63;;
12314;SDS011;23886;46.614;14.276;2023-06-19T00:22:21;9.27;;;8.47;;
12314;SDS011;23886;46.614;14.276;2023-06-19T00:24:47;8.80;;;8.07;;
12314;SDS011;23886;46.614;14.276;2023-06-19T00:27:17;8.83;;;7.97;;
12314;SDS011;23886;46.614;14.276;2023-06-19T00:29:44;9.17;;;8.30;;
12314;SDS011;23886;46.614;14.276;2023-06-19T00:32:10;9.47;;;8.67;;
12314;SDS011;23886;46.614;14.276;2023-06-19T00:34:37;9.90;;;9.00;;
12314;SDS011;23886;46.614;14.276;2023-06-19T00:37:07;9.27;;;8.47;;
12314;SDS011;23886;46.614;14.276;2023-06-19T00:39:36;10.03;;;8.80;;
12314;SDS011;23886;46.614;14.276;2023-06-19T00:42:03;9.07;;;8.27;;
12314;SDS011;23886;46.614;14.276;2023-06-19T00:44:30;9.30;;;8.50;;
12314;SDS011;23886;46.614;14.276;2023-06-19T00:46:58;8.80;;;8.10;;
12314;SDS011;23886;46.614;14.276;2023-06-19T00:49:26;9.50;;;8.50;;
12314;SDS011;23886;46.614;14.276;2023-06-19T00:51:54;9.20;;;8.40;;
12314;SDS011;23886;46.614;14.276;2023-06-19T00:54:22;9.60;;;8.80;;
12314;SDS011;23886;46.614;14.276;2023-06-19T00:56:50;9.10;;;8.40;;
12314;SDS011;23886;46.614;14.276;2023-06-19T00:59:19;9.27;;;8.57;;
12314;SDS011;23886;46.614;14.276;2023-06-19T01:01:47;9.27;;;8.43;;
12314;SDS011;23886;46.614;14.276;2023-06-19T01:04:14;9.67;;;8.83;;
12314;SDS011;23886;46.614;14.276;2023-06-19T01:06:43;9.13;;;8.43;;
12314;SDS011;23886;46.614;14.276;2023-06-19T01:09:17;9.73;;;8.83;;
12314;SDS011;23886;46.614;14.276;2023-06-19T01:11:47;10.93;;;9.20;;
12314;SDS011;23886;46.614;14.276;2023-06-19T01:14:21;10.47;;;9.20;;
12314;SDS011;23886;46.614;14.276;2023-06-19T01:16:53;11.17;;;8.77;;
12314;SDS011;23886;46.614;14.276;2023-06-19T01:19:20;9.57;;;8.57;;
12314;SDS011;23886;46.614;14.276;2023-06-19T01:21:48;9.30;;;8.50;;
12314;SDS011;23886;46.614;14.276;2023-06-19T01:24:17;10.27;;;9.37;;
12314;SDS011;23886;46.614;14.276;2023-06-19T01:26:44;9.93;;;9.13;;
12314;SDS011;23886;46.614;14.276;2023-06-19T01:29:12;9.57;;;8.77;;
12314;SDS011;23886;46.614;14.276;2023-06-19T01:31:42;9.47;;;8.70;;
12314;SDS011;23886;46.614;14.276;2023-06-19T01:34:15;9.97;;;9.07;;
12314;SDS011;23886;46.614;14.276;2023-06-19T01:36:46;10.23;;;9.23;;
12314;SDS011;23886;46.614;14.276;2023-06-19T01:39:16;10.50;;;9.60;;
12314;SDS011;23886;46.614;14.276;2023-06-19T01:41:45;10.30;;;9.40;;
12314;SDS011;23886;46.614;14.276;2023-06-19T01:44:12;11.20;;;10.20;;
12314;SDS011;23886;46.614;14.276;2023-06-19T01:46:39;10.03;;;9.13;;
12314;SDS011;23886;46.614;14.276;2023-06-19T01:49:07;10.53;;;9.53;;
12314;SDS011;23886;46.614;14.276;2023-06-19T01:51:35;10.43;;;9.53;;
12314;SDS011;23886;46.614;14.276;2023-06-19T01:54:02;10.40;;;9.47;;
12314;SDS011;23886;46.614;14.276;2023-06-19T01:56:32;9.37;;;8.47;;
12314;SDS011;23886;46.614;14.276;2023-06-19T01:58:59;10.23;;;9.30;;
12314;SDS011;23886;46.614;14.276;2023-06-19T02:01:26;10.63;;;9.73;;
12314;SDS011;23886;46.614;14.276;2023-06-19T02:03:53;9.50;;;8.80;;
12314;SDS011;23886;46.614;14.276;2023-06-19T02:06:20;9.80;;;9.00;;
12314;SDS011;23886;46.614;14.276;2023-06-19T02:08:47;9.57;;;8.67;;
12314;SDS011;23886;46.614;14.276;2023-06-19T02:11:14;10.13;;;9.23;;
12314;SDS011;23886;46.614;14.276;2023-06-19T02:13:43;11.00;;;9.90;;
12314;SDS011;23886;46.614;14.276;2023-06-19T02:16:10;10.40;;;9.60;;
12314;SDS011;23886;46.614;14.276;2023-06-19T02:18:37;11.40;;;10.30;;
12314;SDS011;23886;46.614;14.276;2023-06-19T02:21:04;10.87;;;9.87;;
12314;SDS011;23886;46.614;14.276;2023-06-19T02:23:30;11.20;;;10.20;;
12314;SDS011;23886;46.614;14.276;2023-06-19T02:25:58;10.97;;;9.90;;
12314;SDS011;23886;46.614;14.276;2023-06-19T02:28:24;11.60;;;10.60;;
12314;SDS011;23886;46.614;14.276;2023-06-19T02:30:53;10.37;;;9.53;;
12314;SDS011;23886;46.614;14.276;2023-06-19T02:33:20;11.33;;;10.33;;
12314;SDS011;23886;46.614;14.276;2023-06-19T02:35:47;11.10;;;10.10;;
12314;SDS011;23886;46.614;14.276;2023-06-19T02:38:14;12.20;;;11.00;;
12314;SDS011;23886;46.614;14.276;2023-06-19T02:40:43;10.87;;;9.87;;
12314;SDS011;23886;46.614;14.276;2023-06-19T02:43:11;12.13;;;11.03;;
12314;SDS011;23886;46.614;14.276;2023-06-19T02:45:38;11.63;;;10.60;;
12314;SDS011;23886;46.614;14.276;2023-06-19T02:48:06;12.47;;;11.27;;
12314;SDS011;23886;46.614;14.276;2023-06-19T02:50:33;12.17;;;11.03;;
12314;SDS011;23886;46.614;14.276;2023-06-19T02:53:00;12.73;;;11.63;;
12314;SDS011;23886;46.614;14.276;2023-06-19T02:55:27;11.40;;;10.50;;
12314;SDS011;23886;46.614;14.276;2023-06-19T02:57:54;12.57;;;11.30;;
12314;SDS011;23886;46.614;14.276;2023-06-19T03:00:21;12.87;;;11.67;;
12314;SDS011;23886;46.614;14.276;2023-06-19T03:02:48;12.13;;;11.03;;
12314;SDS011;23886;46.614;14.276;2023-06-19T03:05:17;12.23;;;11.23;;
12314;SDS011;23886;46.614;14.276;2023-06-19T03:07:45;12.43;;;11.33;;
12314;SDS011;23886;46.614;14.276;2023-06-19T03:10:12;12.03;;;11.00;;
12314;SDS011;23886;46.614;14.276;2023-06-19T03:12:39;12.23;;;11.20;;
12314;SDS011;23886;46.614;14.276;2023-06-19T03:15:06;12.90;;;11.80;;
12314;SDS011;23886;46.614;14.276;2023-06-19T03:17:33;13.43;;;12.13;;
12314;SDS011;23886;46.614;14.276;2023-06-19T03:20:00;12.33;;;11.33;;
12314;SDS011;23886;46.614;14.276;2023-06-19T03:22:29;13.27;;;11.33;;
12314;SDS011;23886;46.614;14.276;2023-06-19T03:24:56;13.03;;;11.83;;
12314;SDS011;23886;46.614;14.276;2023-06-19T03:27:24;12.33;;;11.37;;
12314;SDS011;23886;46.614;14.276;2023-06-19T03:29:52;13.27;;;11.97;;
12314;SDS011;23886;46.614;14.276;2023-06-19T03:32:19;12.50;;;11.50;;
12314;SDS011;23886;46.614;14.276;2023-06-19T03:34:46;13.77;;;12.57;;
12314;SDS011;23886;46.614;14.276;2023-06-19T03:37:13;13.37;;;12.13;;
12314;SDS011;23886;46.614;14.276;2023-06-19T03:39:42;12.00;;;11.00;;
12314;SDS011;23886;46.614;14.276;2023-06-19T03:42:09;12.43;;;11.33;;
12314;SDS011;23886;46.614;14.276;2023-06-19T03:44:36;12.63;;;11.63;;
12314;SDS011;23886;46.614;14.276;2023-06-19T03:47:03;12.97;;;11.87;;
12314;SDS011;23886;46.614;14.276;2023-06-19T03:49:30;13.30;;;12.10;;
12314;SDS011;23886;46.614;14.276;2023-06-19T03:51:57;13.37;;;12.27;;
12314;SDS011;23886;46.614;14.276;2023-06-19T03:54:24;13.57;;;12.37;;
12314;SDS011;23886;46.614;14.276;2023-06-19T03:56:53;13.23;;;12.10;;
12314;SDS011;23886;46.614;14.276;2023-06-19T03:59:20;12.87;;;11.77;;
12314;SDS011;23886;46.614;14.276;2023-06-19T04:01:47;12.53;;;11.43;;
12314;SDS011;23886;46.614;14.276;2023-06-19T04:04:14;13.53;;;12.33;;
12314;SDS011;23886;46.614;14.276;2023-06-19T04:06:41;13.83;;;12.60;;
12314;SDS011;23886;46.614;14.276;2023-06-19T04:09:08;12.90;;;11.80;;
12314;SDS011;23886;46.614;14.276;2023-06-19T04:11:35;11.85;;;10.95;;
12314;SDS011;23886;46.614;14.276;2023-06-19T04:14:04;13.87;;;12.67;;
12314;SDS011;23886;46.614;14.276;2023-06-19T04:16:31;12.87;;;11.83;;
12314;SDS011;23886;46.614;14.276;2023-06-19T04:18:58;12.83;;;11.63;;
12314;SDS011;23886;46.614;14.276;2023-06-19T04:21:25;15.60;;;14.30;;
12314;SDS011;23886;46.614;14.276;2023-06-19T04:23:52;12.90;;;11.90;;
12314;SDS011;23886;46.614;14.276;2023-06-19T04:26:19;13.97;;;12.77;;
12314;SDS011;23886;46.614;14.276;2023-06-19T04:28:46;13.83;;;12.47;;
12314;SDS011;23886;46.614;14.276;2023-06-19T04:31:15;11.80;;;10.80;;
12314;SDS011;23886;46.614;14.276;2023-06-19T04:33:43;12.43;;;11.43;;
12314;SDS011;23886;46.614;14.276;2023-06-19T04:36:11;13.00;;;11.80;;
12314;SDS011;23886;46.614;14.276;2023-06-19T04:38:39;13.23;;;12.13;;
12314;SDS011;23886;46.614;14.276;2023-06-19T04:41:06;12.73;;;11.50;;
12314;SDS011;23886;46.614;14.276;2023-06-19T04:43:33;11.50;;;10.50;;
12314;SDS011;23886;46.614;14.276;2023-06-19T04:46:00;11.60;;;10.60;;
12314;SDS011;23886;46.614;14.276;2023-06-19T04:48:30;11.70;;;10.80;;
12314;SDS011;23886;46.614;14.276;2023-06-19T04:50:57;11.87;;;10.87;;
12314;SDS011;23886;46.614;14.276;2023-06-19T04:53:25;12.23;;;11.13;;
12314;SDS011;23886;46.614;14.276;2023-06-19T04:55:52;12.80;;;11.60;;
12314;SDS011;23886;46.614;14.276;2023-06-19T04:58:20;12.43;;;11.33;;
12314;SDS011;23886;46.614;14.276;2023-06-19T05:00:47;13.00;;;11.83;;
12314;SDS011;23886;46.614;14.276;2023-06-19T05:03:17;23.10;;;20.83;;
12314;SDS011;23886;46.614;14.276;2023-06-19T05:05:46;15.33;;;13.93;;
12314;SDS011;23886;46.614;14.276;2023-06-19T05:08:13;12.83;;;11.57;;
12314;SDS011;23886;46.614;14.276;2023-06-19T05:10:40;12.73;;;11.63;;
12314;SDS011;23886;46.614;14.276;2023-06-19T05:13:07;11.17;;;10.17;;
12314;SDS011;23886;46.614;14.276;2023-06-19T05:15:34;11.70;;;10.60;;
12314;SDS011;23886;46.614;14.276;2023-06-19T05:18:01;12.40;;;11.40;;
12314;SDS011;23886;46.614;14.276;2023-06-19T05:20:28;12.40;;;11.30;;
12314;SDS011;23886;46.614;14.276;2023-06-19T05:22:56;11.93;;;10.87;;
12314;SDS011;23886;46.614;14.276;2023-06-19T05:25:23;11.80;;;10.80;;
12314;SDS011;23886;46.614;14.276;2023-06-19T05:27:50;10.67;;;9.77;;
12314;SDS011;23886;46.614;14.276;2023-06-19T05:30:17;11.43;;;10.53;;
12314;SDS011;23886;46.614;14.276;2023-06-19T05:32:44;11.37;;;10.33;;
12314;SDS011;23886;46.614;14.276;2023-06-19T05:35:11;11.00;;;10.10;;
12314;SDS011;23886;46.614;14.276;2023-06-19T05:37:38;11.27;;;10.27;;
12314;SDS011;23886;46.614;14.276;2023-06-19T05:40:09;10.90;;;10.10;;
12314;SDS011;23886;46.614;14.276;2023-06-19T05:42:37;10.57;;;9.67;;
12314;SDS011;23886;46.614;14.276;2023-06-19T05:45:05;10.83;;;10.00;;
12314;SDS011;23886;46.614;14.276;2023-06-19T05:47:32;11.73;;;10.53;;
12314;SDS011;23886;46.614;14.276;2023-06-19T05:50:00;12.00;;;10.83;;
12314;SDS011;23886;46.614;14.276;2023-06-19T05:52:27;10.40;;;9.40;;
12314;SDS011;23886;46.614;14.276;2023-06-19T05:54:54;10.57;;;9.67;;
12314;SDS011;23886;46.614;14.276;2023-06-19T05:57:24;11.33;;;10.33;;
12314;SDS011;23886;46.614;14.276;2023-06-19T05:59:51;11.13;;;10.13;;
12314;SDS011;23886;46.614;14.276;2023-06-19T06:02:19;11.00;;;10.00;;
12314;SDS011;23886;46.614;14.276;2023-06-19T06:04:46;11.13;;;10.07;;
12314;SDS011;23886;46.614;14.276;2023-06-19T06:07:13;11.87;;;10.70;;
12314;SDS011;23886;46.614;14.276;2023-06-19T06:09:40;11.30;;;10.07;;
12314;SDS011;23886;46.614;14.276;2023-06-19T06:12:07;11.13;;;10.03;;
12314;SDS011;23886;46.614;14.276;2023-06-19T06:14:36;10.83;;;9.57;;
12314;SDS011;23886;46.614;14.276;2023-06-19T06:17:03;11.10;;;10.10;;
12314;SDS011;23886;46.614;14.276;2023-06-19T06:19:31;11.23;;;10.10;;
12314;SDS011;23886;46.614;14.276;2023-06-19T06:21:58;10.63;;;9.63;;
12314;SDS011;23886;46.614;14.276;2023-06-19T06:24:25;10.63;;;9.80;;
12314;SDS011;23886;46.614;14.276;2023-06-19T06:26:52;11.13;;;10.13;;
12314;SDS011;23886;46.614;14.276;2023-06-19T06:29:20;10.77;;;9.87;;
12314;SDS011;23886;46.614;14.276;2023-06-19T06:31:48;10.43;;;9.60;;
12314;SDS011;23886;46.614;14.276;2023-06-19T06:34:17;10.80;;;9.77;;
12314;SDS011;23886;46.614;14.276;2023-06-19T06:36:45;10.43;;;9.57;;
12314;SDS011;23886;46.614;14.276;2023-06-19T06:39:11;10.83;;;9.97;;
12314;SDS011;23886;46.614;14.276;2023-06-19T06:41:39;11.10;;;10.07;;
12314;SDS011;23886;46.614;14.276;2023-06-19T06:44:06;10.20;;;9.30;;
12314;SDS011;23886;46.614;14.276;2023-06-19T06:46:32;9.97;;;9.17;;
12314;SDS011;23886;46.614;14.276;2023-06-19T06:49:01;10.63;;;9.53;;
12314;SDS011;23886;46.614;14.276;2023-06-19T06:51:28;9.73;;;8.93;;
12314;SDS011;23886;46.614;14.276;2023-06-19T06:53:55;10.30;;;9.40;;
12314;SDS011;23886;46.614;14.276;2023-06-19T06:56:22;10.83;;;9.47;;
12314;SDS011;23886;46.614;14.276;2023-06-19T06:58:49;10.83;;;9.93;;
12314;SDS011;23886;46.614;14.276;2023-06-19T07:01:16;9.83;;;9.03;;
12314;SDS011;23886;46.614;14.276;2023-06-19T07:03:43;9.67;;;8.90;;
12314;SDS011;23886;46.614;14.276;2023-06-19T07:06:11;10.10;;;9.17;;
12314;SDS011;23886;46.614;14.276;2023-06-19T07:08:38;10.33;;;9.43;;
12314;SDS011;23886;46.614;14.276;2023-06-19T07:11:06;10.13;;;9.33;;
12314;SDS011;23886;46.614;14.276;2023-06-19T07:13:33;10.50;;;9.60;;
12314;SDS011;23886;46.614;14.276;2023-06-19T07:16:00;10.70;;;9.73;;
12314;SDS011;23886;46.614;14.276;2023-06-19T07:18:27;10.40;;;9.60;;
12314;SDS011;23886;46.614;14.276;2023-06-19T07:20:54;10.23;;;9.33;;
12314;SDS011;23886;46.614;14.276;2023-06-19T07:23:23;10.57;;;9.67;;
12314;SDS011;23886;46.614;14.276;2023-06-19T07:25:50;11.10;;;10.13;;
12314;SDS011;23886;46.614;14.276;2023-06-19T07:28:17;10.37;;;9.47;;
12314;SDS011;23886;46.614;14.276;2023-06-19T07:30:44;11.07;;;10.10;;
12314;SDS011;23886;46.614;14.276;2023-06-19T07:33:13;9.87;;;9.10;;
12314;SDS011;23886;46.614;14.276;2023-06-19T07:35:40;10.67;;;9.57;;
12314;SDS011;23886;46.614;14.276;2023-06-19T07:38:07;10.30;;;9.50;;
12314;SDS011;23886;46.614;14.276;2023-06-19T07:40:35;10.40;;;9.60;;
12314;SDS011;23886;46.614;14.276;2023-06-19T07:43:02;10.17;;;9.30;;
12314;SDS011;23886;46.614;14.276;2023-06-19T07:45:29;18.97;;;17.20;;
12314;SDS011;23886;46.614;14.276;2023-06-19T07:47:56;10.07;;;9.20;;
12314;SDS011;23886;46.614;14.276;2023-06-19T07:50:23;10.63;;;9.73;;
12314;SDS011;23886;46.614;14.276;2023-06-19T07:52:50;10.03;;;9.13;;
12314;SDS011;23886;46.614;14.276;2023-06-19T07:55:17;9.83;;;8.93;;
12314;SDS011;23886;46.614;14.276;2023-06-19T07:57:46;9.50;;;8.70;;
12314;SDS011;23886;46.614;14.276;2023-06-19T08:00:13;10.83;;;9.83;;
12314;SDS011;23886;46.614;14.276;2023-06-19T08:02:40;9.33;;;8.63;;
12314;SDS011;23886;46.614;14.276;2023-06-19T08:05:08;9.47;;;8.57;;
12314;SDS011;23886;46.614;14.276;2023-06-19T08:07:36;9.67;;;8.87;;
12314;SDS011;23886;46.614;14.276;2023-06-19T08:10:03;9.40;;;8.60;;
12314;SDS011;23886;46.614;14.276;2023-06-19T08:12:31;9.27;;;8.50;;
12314;SDS011;23886;46.614;14.276;2023-06-19T08:14:59;10.27;;;9.27;;
12314;SDS011;23886;46.614;14.276;2023-06-19T08:17:26;10.00;;;9.00;;
12314;SDS011;23886;46.614;14.276;2023-06-19T08:19:53;9.33;;;8.53;;
12314;SDS011;23886;46.614;14.276;2023-06-19T08:22:20;9.40;;;8.50;;
12314;SDS011;23886;46.614;14.276;2023-06-19T08:24:47;10.03;;;9.13;;
12314;SDS011;23886;46.614;14.276;2023-06-19T08:27:14;10.03;;;9.27;;
12314;SDS011;23886;46.614;14.276;2023-06-19T08:29:41;10.03;;;9.13;;
12314;SDS011;23886;46.614;14.276;2023-06-19T08:32:10;9.43;;;8.63;;
12314;SDS011;23886;46.614;14.276;2023-06-19T08:34:37;8.87;;;8.17;;
12314;SDS011;23886;46.614;14.276;2023-06-19T08:37:05;9.73;;;8.87;;
12314;SDS011;23886;46.614;14.276;2023-06-19T08:39:32;10.10;;;9.10;;
12314;SDS011;23886;46.614;14.276;2023-06-19T08:41:59;9.93;;;9.13;;
12314;SDS011;23886;46.614;14.276;2023-06-19T08:44:26;8.80;;;8.10;;
12314;SDS011;23886;46.614;14.276;2023-06-19T08:46:53;11.47;;;8.93;;
12314;SDS011;23886;46.614;14.276;2023-06-19T08:49:21;9.13;;;8.33;;
12314;SDS011;23886;46.614;14.276;2023-06-19T08:51:48;10.03;;;9.10;;
12314;SDS011;23886;46.614;14.276;2023-06-19T08:54:17;9.80;;;9.00;;
12314;SDS011;23886;46.614;14.276;2023-06-19T08:56:44;9.80;;;9.10;;
12314;SDS011;23886;46.614;14.276;2023-06-19T08:59:13;10.50;;;9.33;;
12314;SDS011;23886;46.614;14.276;2023-06-19T09:01:46;9.67;;;8.97;;
12314;SDS011;23886;46.614;14.276;2023-06-19T09:04:17;9.67;;;8.97;;
12314;SDS011;23886;46.614;14.276;2023-06-19T09:06:48;8.87;;;8.20;;
12314;SDS011;23886;46.614;14.276;2023-06-19T09:09:16;9.83;;;9.03;;
12314;SDS011;23886;46.614;14.276;2023-06-19T09:11:43;9.90;;;9.00;;
12314;SDS011;23886;46.614;14.276;2023-06-19T09:14:23;9.87;;;9.13;;
12314;SDS011;23886;46.614;14.276;2023-06-19T09:16:57;9.43;;;8.63;;
12314;SDS011;23886;46.614;14.276;2023-06-19T09:19:24;9.87;;;8.97;;
12314;SDS011;23886;46.614;14.276;2023-06-19T09:21:52;9.40;;;8.60;;
12314;SDS011;23886;46.614;14.276;2023-06-19T09:24:19;10.13;;;9.23;;
12314;SDS011;23886;46.614;14.276;2023-06-19T09:26:46;10.57;;;9.77;;
12314;SDS011;23886;46.614;14.276;2023-06-19T09:29:13;9.43;;;8.50;;
12314;SDS011;23886;46.614;14.276;2023-06-19T09:31:43;10.13;;;9.00;;
12314;SDS011;23886;46.614;14.276;2023-06-19T09:34:10;8.90;;;8.20;;
12314;SDS011;23886;46.614;14.276;2023-06-19T09:36:37;8.77;;;8.07;;
12314;SDS011;23886;46.614;14.276;2023-06-19T09:39:07;9.73;;;8.93;;
12314;SDS011;23886;46.614;14.276;2023-06-19T09:41:35;9.43;;;8.53;;
12314;SDS011;23886;46.614;14.276;2023-06-19T09:44:04;9.35;;;8.65;;
12314;SDS011;23886;46.614;14.276;2023-06-19T09:46:37;9.10;;;8.40;;
12314;SDS011;23886;46.614;14.276;2023-06-19T09:49:07;9.05;;;8.35;;
12314;SDS011;23886;46.614;14.276;2023-06-19T09:51:37;9.30;;;8.40;;
12314;SDS011;23886;46.614;14.276;2023-06-19T09:54:04;9.27;;;8.47;;
12314;SDS011;23886;46.614;14.276;2023-06-19T09:56:33;8.63;;;7.95;;
12314;SDS011;23886;46.614;14.276;2023-06-19T09:59:00;8.93;;;8.13;;
12314;SDS011;23886;46.614;14.276;2023-06-19T10:01:29;9.45;;;8.65;;
12314;SDS011;23886;46.614;14.276;2023-06-19T10:04:04;8.82;;;8.10;;
12314;SDS011;23886;46.614;14.276;2023-06-19T10:06:32;9.57;;;8.40;;
12314;SDS011;23886;46.614;14.276;2023-06-19T10:09:07;8.60;;;7.90;;
12314;SDS011;23886;46.614;14.276;2023-06-19T10:11:45;8.90;;;8.20;;
12314;SDS011;23886;46.614;14.276;2023-06-19T10:14:13;9.27;;;8.57;;
12314;SDS011;23886;46.614;14.276;2023-06-19T10:16:43;9.60;;;8.80;;
12314;SDS011;23886;46.614;14.276;2023-06-19T10:19:14;9.80;;;8.93;;
12314;SDS011;23886;46.614;14.276;2023-06-19T10:21:45;9.70;;;8.90;;
12314;SDS011;23886;46.614;14.276;2023-06-19T10:24:15;9.73;;;8.80;;
12314;SDS011;23886;46.614;14.276;2023-06-19T10:26:54;9.35;;;8.65;;
12314;SDS011;23886;46.614;14.276;2023-06-19T10:29:23;9.10;;;8.30;;
12314;SDS011;23886;46.614;14.276;2023-06-19T10:31:50;9.38;;;8.48;;
12314;SDS011;23886;46.614;14.276;2023-06-19T10:34:17;8.90;;;8.20;;
12314;SDS011;23886;46.614;14.276;2023-06-19T10:36:44;8.38;;;7.68;;
12314;SDS011;23886;46.614;14.276;2023-06-19T10:39:11;8.82;;;8.13;;
12314;SDS011;23886;46.614;14.276;2023-06-19T10:41:42;8.50;;;7.80;;
12314;SDS011;23886;46.614;14.276;2023-06-19T10:44:09;8.75;;;7.85;;
12314;SDS011;23886;46.614;14.276;2023-06-19T10:46:38;8.27;;;7.68;;
12314;SDS011;23886;46.614;14.276;2023-06-19T10:49:07;8.18;;;7.57;;
12314;SDS011;23886;46.614;14.276;2023-06-19T10:51:36;8.80;;;8.10;;
12314;SDS011;23886;46.614;14.276;2023-06-19T10:54:04;9.80;;;8.00;;
12314;SDS011;23886;46.614;14.276;2023-06-19T10:56:32;8.10;;;7.45;;
12314;SDS011;23886;46.614;14.276;2023-06-19T10:59:01;9.40;;;8.57;;
12314;SDS011;23886;46.614;14.276;2023-06-19T11:01:34;8.15;;;7.45;;
12314;SDS011;23886;46.614;14.276;2023-06-19T11:04:02;9.05;;;8.25;;
12314;SDS011;23886;46.614;14.276;2023-06-19T11:06:30;8.77;;;8.07;;
12314;SDS011;23886;46.614;14.276;2023-06-19T11:08:58;8.73;;;8.02;;
12314;SDS011;23886;46.614;14.276;2023-06-19T11:11:34;9.40;;;8.40;;
12314;SDS011;23886;46.614;14.276;2023-06-19T11:14:03;9.23;;;8.32;;
12314;SDS011;23886;46.614;14.276;2023-06-19T11:16:31;9.55;;;8.50;;
12314;SDS011;23886;46.614;14.276;2023-06-19T11:18:58;9.07;;;8.38;;
12314;SDS011;23886;46.614;14.276;2023-06-19T11:21:29;9.18;;;8.48;;
12314;SDS011;23886;46.614;14.276;2023-06-19T11:23:58;8.43;;;7.72;;
12314;SDS011;23886;46.614;14.276;2023-06-19T11:26:25;8.75;;;8.00;;
12314;SDS011;23886;46.614;14.276;2023-06-19T11:28:52;8.45;;;7.85;;
12314;SDS011;23886;46.614;14.276;2023-06-19T11:31:26;8.60;;;7.90;;
12314;SDS011;23886;46.614;14.276;2023-06-19T11:33:57;8.88;;;7.95;;
12314;SDS011;23886;46.614;14.276;2023-06-19T11:36:24;9.85;;;7.95;;
12314;SDS011;23886;46.614;14.276;2023-06-19T11:38:52;9.95;;;7.15;;
12314;SDS011;23886;46.614;14.276;2023-06-19T11:41:25;6.95;;;6.45;;
12314;SDS011;23886;46.614;14.276;2023-06-19T11:43:58;7.60;;;6.28;;
12314;SDS011;23886;46.614;14.276;2023-06-19T11:46:30;6.15;;;5.75;;
12314;SDS011;23886;46.614;14.276;2023-06-19T11:49:06;6.53;;;6.03;;
12314;SDS011;23886;46.614;14.276;2023-06-19T11:51:34;6.15;;;5.70;;
12314;SDS011;23886;46.614;14.276;2023-06-19T11:54:03;6.43;;;5.82;;
12314;SDS011;23886;46.614;14.276;2023-06-19T11:56:31;5.22;;;4.82;;
12314;SDS011;23886;46.614;14.276;2023-06-19T11:58:59;6.85;;;6.32;;
12314;SDS011;23886;46.614;14.276;2023-06-19T12:01:26;5.72;;;5.28;;
12314;SDS011;23886;46.614;14.276;2023-06-19T12:03:54;6.53;;;6.03;;
12314;SDS011;23886;46.614;14.276;2023-06-19T12:06:21;4.97;;;4.65;;
12314;SDS011;23886;46.614;14.276;2023-06-19T12:08:49;7.55;;;7.05;;
12314;SDS011;23886;46.614;14.276;2023-06-19T12:11:16;6.18;;;5.57;;
12314;SDS011;23886;46.614;14.276;2023-06-19T12:13:44;5.00;;;4.45;;
12314;SDS011;23886;46.614;14.276;2023-06-19T12:16:11;4.70;;;4.35;;
12314;SDS011;23886;46.614;14.276;2023-06-19T12:18:39;4.43;;;4.13;;
12314;SDS011;23886;46.614;14.276;2023-06-19T12:21:07;4.43;;;4.10;;
12314;SDS011;23886;46.614;14.276;2023-06-19T12:23:34;4.28;;;3.97;;
12314;SDS011;23886;46.614;14.276;2023-06-19T12:26:02;4.50;;;4.10;;
12314;SDS011;23886;46.614;14.276;2023-06-19T12:28:29;4.90;;;3.72;;
12314;SDS011;23886;46.614;14.276;2023-06-19T12:30:56;5.18;;;4.28;;
12314;SDS011;23886;46.614;14.276;2023-06-19T12:33:23;3.60;;;3.40;;
12314;SDS011;23886;46.614;14.276;2023-06-19T12:35:50;4.35;;;3.95;;
12314;SDS011;23886;46.614;14.276;2023-06-19T12:38:19;3.97;;;3.60;;
12314;SDS011;23886;46.614;14.276;2023-06-19T12:40:46;3.70;;;3.42;;
12314;SDS011;23886;46.614;14.276;2023-06-19T12:43:13;4.07;;;3.78;;
12314;SDS011;23886;46.614;14.276;2023-06-19T12:45:40;3.85;;;3.55;;
12314;SDS011;23886;46.614;14.276;2023-06-19T12:48:07;3.40;;;3.10;;
12314;SDS011;23886;46.614;14.276;2023-06-19T12:50:36;3.22;;;2.92;;
12314;SDS011;23886;46.614;14.276;2023-06-19T12:53:03;3.13;;;2.92;;
12314;SDS011;23886;46.614;14.276;2023-06-19T12:55:31;3.03;;;2.83;;
12314;SDS011;23886;46.614;14.276;2023-06-19T12:57:58;3.35;;;3.13;;
12314;SDS011;23886;46.614;14.276;2023-06-19T13:00:25;3.22;;;3.03;;
12314;SDS011;23886;46.614;14.276;2023-06-19T13:02:52;3.45;;;3.15;;
12314;SDS011;23886;46.614;14.276;2023-06-19T13:05:19;3.60;;;3.20;;
12314;SDS011;23886;46.614;14.276;2023-06-19T13:07:46;3.53;;;3.13;;
12314;SDS011;23886;46.614;14.276;2023-06-19T13:10:13;3.40;;;3.20;;
12314;SDS011;23886;46.614;14.276;2023-06-19T13:12:41;4.60;;;3.30;;
12314;SDS011;23886;46.614;14.276;2023-06-19T13:15:08;3.70;;;3.40;;
12314;SDS011;23886;46.614;14.276;2023-06-19T13:17:36;3.40;;;3.10;;
12314;SDS011;23886;46.614;14.276;2023-06-19T13:20:03;3.80;;;3.60;;
12314;SDS011;23886;46.614;14.276;2023-06-19T13:22:31;5.05;;;3.17;;
12314;SDS011;23886;46.614;14.276;2023-06-19T13:24:58;6.60;;;3.33;;
12314;SDS011;23886;46.614;14.276;2023-06-19T13:27:26;4.35;;;3.40;;
12314;SDS011;23886;46.614;14.276;2023-06-19T13:29:55;5.20;;;4.80;;
12314;SDS011;23886;46.614;14.276;2023-06-19T13:32:22;3.70;;;3.40;;
12314;SDS011;23886;46.614;14.276;2023-06-19T13:34:49;4.82;;;3.40;;
12314;SDS011;23886;46.614;14.276;2023-06-19T13:37:17;3.75;;;3.55;;
12314;SDS011;23886;46.614;14.276;2023-06-19T13:39:44;3.80;;;3.50;;
12314;SDS011;23886;46.614;14.276;2023-06-19T13:42:11;3.45;;;3.15;;
12314;SDS011;23886;46.614;14.276;2023-06-19T13:44:38;8.07;;;7.53;;
12314;SDS011;23886;46.614;14.276;2023-06-19T13:47:07;3.58;;;3.38;;
12314;SDS011;23886;46.614;14.276;2023-06-19T13:49:34;3.47;;;3.17;;
12314;SDS011;23886;46.614;14.276;2023-06-19T13:52:01;3.10;;;2.90;;
12314;SDS011;23886;46.614;14.276;2023-06-19T13:54:28;3.38;;;2.95;;
12314;SDS011;23886;46.614;14.276;2023-06-19T13:56:55;3.40;;;3.20;;
12314;SDS011;23886;46.614;14.276;2023-06-19T13:59:22;4.05;;;3.13;;
12314;SDS011;23886;46.614;14.276;2023-06-19T14:01:49;4.03;;;3.28;;
12314;SDS011;23886;46.614;14.276;2023-06-19T14:04:17;3.75;;;3.08;;
12314;SDS011;23886;46.614;14.276;2023-06-19T14:06:44;3.38;;;3.05;;
12314;SDS011;23886;46.614;14.276;2023-06-19T14:09:11;3.60;;;3.30;;
12314;SDS011;23886;46.614;14.276;2023-06-19T14:11:38;3.78;;;3.47;;
12314;SDS011;23886;46.614;14.276;2023-06-19T14:14:06;3.90;;;3.60;;
12314;SDS011;23886;46.614;14.276;2023-06-19T14:16:33;3.55;;;3.25;;
12314;SDS011;23886;46.614;14.276;2023-06-19T14:19:00;3.63;;;3.33;;
12314;SDS011;23886;46.614;14.276;2023-06-19T14:21:28;3.60;;;3.30;;
12314;SDS011;23886;46.614;14.276;2023-06-19T14:23:55;3.67;;;3.38;;
12314;SDS011;23886;46.614;14.276;2023-06-19T14:26:22;3.47;;;3.20;;
12314;SDS011;23886;46.614;14.276;2023-06-19T14:28:49;5.05;;;3.70;;